createdAt,value
2016-07-22T00:00:22.456Z,54.20
2016-07-22T00:01:17.661Z,54.20
2016-07-22T00:02:25.729Z,54.60
2016-07-22T00:03:32.779Z,54.50
2016-07-22T00:04:24.773Z,54.50
2016-07-22T00:05:20.952Z,54.70
2016-07-22T00:06:29.696Z,54.60
2016-07-22T00:07:14.836Z,54.50
2016-07-22T00:08:16.106Z,54.70
2016-07-22T00:09:23.206Z,54.40
2016-07-22T00:10:33.652Z,54.40
2016-07-22T00:11:16.109Z,54.40
2016-07-22T00:12:19.057Z,54.40
2016-07-22T00:13:21.644Z,54.70
2016-07-22T00:14:25.528Z,54.60
2016-07-22T00:15:22.666Z,54.60
2016-07-22T00:16:22.428Z,54.60
2016-07-22T00:17:26.297Z,54.60
2016-07-22T00:18:16.505Z,54.60
2016-07-22T00:19:14.864Z,54.60
2016-07-22T00:20:25.076Z,54.70
2016-07-22T00:21:27.732Z,54.60
2016-07-22T00:22:18.235Z,54.60
2016-07-22T00:23:22.576Z,54.90
2016-07-22T00:24:13.645Z,54.70
2016-07-22T00:25:20.536Z,54.70
2016-07-22T00:26:14.375Z,55.20
2016-07-22T00:27:27.749Z,54.70
2016-07-22T00:28:26.503Z,54.70
2016-07-22T00:29:15.415Z,54.70
2016-07-22T00:30:15.186Z,54.70
2016-07-22T00:31:24.696Z,54.60
2016-07-22T00:32:22.658Z,54.60
2016-07-22T00:33:22.749Z,54.60
2016-07-22T00:34:27.924Z,54.70
2016-07-22T00:35:23.354Z,54.70
2016-07-22T00:36:31.271Z,54.70
2016-07-22T00:37:21.713Z,is
2016-07-22T00:38:15.745Z,is
2016-07-22T00:39:22.972Z,54.70
2016-07-22T00:40:21.975Z,54.60
2016-07-22T00:41:16.905Z,54.70
2016-07-22T00:42:23.043Z,54.80
2016-07-22T00:43:27.199Z,54.70
2016-07-22T00:44:27.323Z,54.70
2016-07-22T00:45:10.730Z,is
2016-07-22T00:46:16.374Z,54.70
2016-07-22T00:47:20.851Z,54.70
2016-07-22T00:48:16.116Z,is
2016-07-22T00:49:11.642Z,is
2016-07-22T00:50:23.371Z,54.60
2016-07-22T00:51:16.878Z,54.70
2016-07-22T00:52:23.003Z,54.70
2016-07-22T00:53:22.498Z,54.70
2016-07-22T00:54:23.048Z,54.70
2016-07-22T00:55:27.298Z,54.80
2016-07-22T00:56:26.998Z,54.70
2016-07-22T00:57:18.389Z,54.70
2016-07-22T00:58:25.619Z,54.90
2016-07-22T00:59:14.906Z,is
2016-07-22T01:00:19.842Z,54.90
2016-07-22T01:01:22.191Z,54.70
2016-07-22T01:02:23.544Z,54.70
2016-07-22T01:03:21.805Z,54.80
2016-07-22T01:04:26.294Z,54.80
2016-07-22T01:05:27.583Z,54.80
2016-07-22T01:06:22.607Z,54.80
2016-07-22T01:07:22.446Z,is
2016-07-22T01:08:36.682Z,54.80
2016-07-22T01:09:21.535Z,54.90
2016-07-22T01:10:16.289Z,is
2016-07-22T01:11:21.310Z,54.90
2016-07-22T01:12:24.958Z,54.80
2016-07-22T01:13:27.027Z,54.80
2016-07-22T01:14:14.064Z,54.80
2016-07-22T01:15:13.910Z,54.90
2016-07-22T01:16:27.516Z,54.90
2016-07-22T01:17:16.463Z,54.90
2016-07-22T01:18:26.078Z,55.00
2016-07-22T01:19:29.057Z,54.80
2016-07-22T01:20:26.108Z,54.90
2016-07-22T01:21:24.397Z,54.90
2016-07-22T01:22:21.418Z,is
2016-07-22T01:23:28.515Z,54.80
2016-07-22T01:24:19.460Z,55.00
2016-07-22T01:25:12.010Z,54.90
2016-07-22T01:26:21.651Z,54.90
2016-07-22T01:27:22.061Z,54.80
2016-07-22T01:28:32.425Z,55.00
2016-07-22T01:29:15.556Z,54.80
2016-07-22T01:31:18.295Z,54.90
2016-07-22T01:32:18.600Z,54.90
2016-07-22T01:33:25.326Z,55.00
2016-07-22T01:34:13.677Z,is
2016-07-22T01:35:22.752Z,54.90
2016-07-22T01:36:31.448Z,54.50
2016-07-22T01:37:28.100Z,54.90
2016-07-22T01:38:28.957Z,55.00
2016-07-22T01:39:33.605Z,54.80
2016-07-22T01:40:26.242Z,54.90
2016-07-22T01:41:25.919Z,54.90
2016-07-22T01:42:15.976Z,is
2016-07-22T01:43:27.404Z,54.90
2016-07-22T01:44:20.444Z,54.90
2016-07-22T01:45:31.027Z,54.90
2016-07-22T01:46:14.453Z,54.90
2016-07-22T01:47:21.736Z,is
2016-07-22T01:48:18.507Z,55.10
2016-07-22T01:49:22.002Z,55.00
2016-07-22T01:50:26.545Z,54.80
2016-07-22T01:51:15.428Z,55.00
2016-07-22T01:52:13.158Z,54.90
2016-07-22T01:53:31.848Z,54.90
2016-07-22T01:54:18.811Z,55.00
2016-07-22T01:55:21.968Z,54.90
2016-07-22T01:56:13.226Z,55.00
2016-07-22T01:57:13.433Z,54.80
2016-07-22T01:58:22.204Z,54.80
2016-07-22T01:59:17.481Z,54.90
2016-07-22T02:00:27.614Z,54.90
2016-07-22T02:01:22.456Z,54.80
2016-07-22T02:02:13.891Z,54.80
2016-07-22T02:03:30.737Z,54.90
2016-07-22T02:04:22.296Z,54.80
2016-07-22T02:05:27.522Z,54.90
2016-07-22T02:06:27.674Z,54.80
2016-07-22T02:07:15.584Z,54.80
2016-07-22T02:08:21.983Z,54.90
2016-07-22T02:09:20.877Z,54.90
2016-07-22T02:10:27.772Z,54.80
2016-07-22T02:11:29.389Z,54.90
2016-07-22T02:12:25.825Z,54.90
2016-07-22T02:13:31.023Z,54.90
2016-07-22T02:14:31.643Z,54.80
2016-07-22T02:15:16.646Z,55.00
2016-07-22T02:16:21.937Z,54.70
2016-07-22T02:17:28.493Z,54.70
2016-07-22T02:18:27.392Z,54.70
2016-07-22T02:19:25.758Z,54.80
2016-07-22T02:20:14.588Z,54.80
2016-07-22T02:21:26.612Z,54.70
2016-07-22T02:22:31.056Z,54.90
2016-07-22T02:23:24.660Z,55.00
2016-07-22T02:24:31.679Z,54.80
2016-07-22T02:25:27.675Z,54.80
2016-07-22T02:26:18.022Z,is
2016-07-22T02:27:19.344Z,54.70
2016-07-22T02:28:24.397Z,54.70
2016-07-22T02:29:28.554Z,54.80
2016-07-22T02:30:20.342Z,54.70
2016-07-22T02:31:28.525Z,54.70
2016-07-22T02:32:20.400Z,54.80
2016-07-22T02:33:24.303Z,54.70
2016-07-22T02:34:20.476Z,54.70
2016-07-22T02:35:22.120Z,54.80
2016-07-22T02:36:36.581Z,54.70
2016-07-22T02:37:26.026Z,54.80
2016-07-22T02:38:12.230Z,54.60
2016-07-22T02:39:15.504Z,54.80
2016-07-22T02:40:21.995Z,54.70
2016-07-22T02:41:14.224Z,54.80
2016-07-22T02:42:37.951Z,54.70
2016-07-22T02:43:13.692Z,54.60
2016-07-22T02:44:26.689Z,54.70
2016-07-22T02:45:27.455Z,is
2016-07-22T02:46:27.252Z,54.60
2016-07-22T02:47:27.884Z,54.70
2016-07-22T02:48:21.814Z,54.70
2016-07-22T02:49:28.678Z,54.60
2016-07-22T02:50:26.071Z,54.60
2016-07-22T02:51:17.162Z,54.50
2016-07-22T02:52:27.791Z,54.70
2016-07-22T02:53:31.231Z,54.60
2016-07-22T02:54:14.952Z,54.70
2016-07-22T02:55:15.919Z,54.60
2016-07-22T02:56:17.342Z,54.60
2016-07-22T02:57:26.875Z,54.70
2016-07-22T02:58:26.643Z,54.70
2016-07-22T02:59:25.835Z,54.60
2016-07-22T03:00:27.655Z,54.70
2016-07-22T03:01:26.003Z,54.70
2016-07-22T03:02:10.243Z,is
2016-07-22T03:03:22.373Z,54.60
2016-07-22T03:04:28.265Z,54.70
2016-07-22T03:05:23.193Z,54.70
2016-07-22T03:06:26.850Z,54.60
2016-07-22T03:07:24.873Z,54.60
2016-07-22T03:08:21.684Z,54.70
2016-07-22T03:09:21.825Z,55.00
2016-07-22T03:10:37.833Z,54.60
2016-07-22T03:11:23.785Z,54.60
2016-07-22T03:12:28.712Z,54.70
2016-07-22T03:13:26.580Z,54.50
2016-07-22T03:14:24.149Z,54.60
2016-07-22T03:15:28.794Z,54.50
2016-07-22T03:16:17.159Z,54.50
2016-07-22T03:17:29.445Z,54.60
2016-07-22T03:18:15.542Z,54.60
2016-07-22T03:19:27.626Z,54.50
2016-07-22T03:20:27.292Z,54.60
2016-07-22T03:21:33.333Z,54.60
2016-07-22T03:22:23.056Z,54.50
2016-07-22T03:23:20.391Z,54.60
2016-07-22T03:24:27.266Z,54.60
2016-07-22T03:25:20.416Z,54.40
2016-07-22T03:26:26.011Z,54.50
2016-07-22T03:27:26.029Z,54.60
2016-07-22T03:28:25.904Z,54.60
2016-07-22T03:29:24.032Z,54.50
2016-07-22T03:30:27.715Z,54.50
2016-07-22T03:31:20.557Z,54.60
2016-07-22T03:32:33.154Z,54.50
2016-07-22T03:33:21.438Z,54.50
2016-07-22T03:34:21.186Z,54.60
2016-07-22T03:35:30.286Z,54.50
2016-07-22T03:36:28.604Z,54.50
2016-07-22T03:37:16.633Z,54.50
2016-07-22T03:38:25.416Z,54.50
2016-07-22T03:39:12.119Z,is
2016-07-22T03:40:13.075Z,54.40
2016-07-22T03:41:27.674Z,54.60
2016-07-22T03:42:27.466Z,54.50
2016-07-22T03:43:33.331Z,is
2016-07-22T03:44:29.467Z,54.50
2016-07-22T03:45:23.799Z,54.60
2016-07-22T03:46:12.242Z,54.50
2016-07-22T03:47:23.277Z,54.50
2016-07-22T03:48:26.117Z,54.60
2016-07-22T03:49:24.045Z,54.60
2016-07-22T03:50:20.925Z,54.60
2016-07-22T03:51:21.911Z,54.60
2016-07-22T03:52:22.317Z,54.70
2016-07-22T03:53:18.294Z,54.60
2016-07-22T03:54:26.070Z,54.60
2016-07-22T03:55:14.109Z,54.60
2016-07-22T03:56:28.189Z,54.70
2016-07-22T03:57:16.160Z,54.70
2016-07-22T03:58:23.466Z,54.60
2016-07-22T03:59:27.146Z,54.70
2016-07-22T04:00:21.087Z,54.70
2016-07-22T04:01:17.742Z,54.60
2016-07-22T04:02:27.087Z,54.70
2016-07-22T04:03:22.188Z,54.70
2016-07-22T04:04:21.854Z,54.70
2016-07-22T04:05:23.223Z,54.70
2016-07-22T04:06:28.470Z,54.70
2016-07-22T04:07:16.231Z,54.70
2016-07-22T04:08:23.574Z,54.70
2016-07-22T04:09:18.615Z,54.70
2016-07-22T04:10:20.369Z,54.70
2016-07-22T04:11:16.032Z,54.70
2016-07-22T04:12:21.396Z,54.70
2016-07-22T04:13:23.417Z,54.80
2016-07-22T04:14:16.887Z,54.80
2016-07-22T04:15:33.511Z,54.70
2016-07-22T04:16:22.594Z,54.70
2016-07-22T04:17:27.964Z,54.70
2016-07-22T04:18:22.607Z,54.90
2016-07-22T04:19:17.074Z,54.80
2016-07-22T04:20:21.940Z,54.90
2016-07-22T04:21:24.894Z,54.80
2016-07-22T04:22:29.475Z,54.70
2016-07-22T04:23:14.712Z,54.80
2016-07-22T04:24:26.852Z,54.70
2016-07-22T04:25:17.649Z,54.80
2016-07-22T04:26:28.809Z,54.90
2016-07-22T04:27:22.774Z,55.50
2016-07-22T04:28:13.590Z,is
2016-07-22T04:29:21.884Z,54.90
2016-07-22T04:30:22.004Z,54.90
2016-07-22T04:31:13.499Z,54.90
2016-07-22T04:32:12.420Z,54.80
2016-07-22T04:33:20.579Z,54.90
2016-07-22T04:34:22.479Z,55.00
2016-07-22T04:35:22.230Z,54.90
2016-07-22T04:36:27.858Z,54.90
2016-07-22T04:37:27.709Z,54.90
2016-07-22T04:38:22.704Z,55.00
2016-07-22T04:39:28.064Z,55.20
2016-07-22T04:40:25.034Z,55.00
2016-07-22T04:41:22.445Z,55.00
2016-07-22T04:42:28.285Z,55.00
2016-07-22T04:43:24.351Z,55.10
2016-07-22T04:44:21.066Z,55.00
2016-07-22T04:45:27.389Z,55.10
2016-07-22T04:46:27.467Z,55.10
2016-07-22T04:47:22.668Z,55.00
2016-07-22T04:48:15.896Z,55.00
2016-07-22T04:49:17.846Z,55.10
2016-07-22T04:50:23.287Z,55.10
2016-07-22T04:51:13.273Z,55.00
2016-07-22T04:52:26.433Z,55.10
2016-07-22T04:53:24.091Z,55.10
2016-07-22T04:54:20.639Z,55.00
2016-07-22T04:55:21.169Z,55.20
2016-07-22T04:56:28.603Z,55.20
2016-07-22T04:57:14.143Z,55.30
2016-07-22T04:58:17.420Z,55.30
2016-07-22T04:59:22.269Z,55.40
2016-07-22T05:00:18.158Z,55.40
2016-07-22T05:01:20.472Z,56.20
2016-07-22T05:02:21.985Z,55.40
2016-07-22T05:03:22.042Z,55.60
2016-07-22T05:04:20.523Z,55.60
2016-07-22T05:05:21.549Z,55.50
2016-07-22T05:06:16.565Z,55.40
2016-07-22T05:07:19.247Z,55.60
2016-07-22T05:09:22.383Z,55.60
2016-07-22T05:10:24.405Z,55.60
2016-07-22T05:11:13.971Z,is
2016-07-22T05:12:21.560Z,55.60
2016-07-22T05:13:17.506Z,55.70
2016-07-22T05:14:18.394Z,55.70
2016-07-22T05:15:17.111Z,55.70
2016-07-22T05:16:16.826Z,55.70
2016-07-22T05:17:18.933Z,55.70
2016-07-22T05:18:23.143Z,55.70
2016-07-22T05:19:15.164Z,55.70
2016-07-22T05:20:22.126Z,55.70
2016-07-22T05:21:19.724Z,55.70
2016-07-22T05:22:23.520Z,55.70
2016-07-22T05:23:16.605Z,is
2016-07-22T05:24:28.113Z,55.70
2016-07-22T05:25:21.964Z,55.70
2016-07-22T05:26:21.704Z,55.70
2016-07-22T05:27:26.539Z,55.70
2016-07-22T05:28:22.311Z,55.60
2016-07-22T05:29:22.391Z,55.70
2016-07-22T05:30:27.873Z,55.70
2016-07-22T05:31:27.585Z,55.80
2016-07-22T05:32:19.771Z,55.70
2016-07-22T05:33:23.038Z,55.20
2016-07-22T05:34:27.144Z,55.70
2016-07-22T05:35:33.926Z,55.70
2016-07-22T05:36:21.593Z,55.80
2016-07-22T05:37:14.855Z,55.80
2016-07-22T05:38:21.237Z,55.70
2016-07-22T05:39:27.069Z,55.70
2016-07-22T05:40:22.150Z,56.00
2016-07-22T05:41:27.864Z,55.70
2016-07-22T05:42:33.693Z,55.70
2016-07-22T05:43:22.290Z,55.70
2016-07-22T05:44:27.694Z,55.80
2016-07-22T05:45:32.339Z,55.70
2016-07-22T05:46:17.249Z,55.80
2016-07-22T05:47:25.596Z,55.80
2016-07-22T05:48:21.905Z,55.80
2016-07-22T05:49:26.820Z,55.80
2016-07-22T05:50:17.307Z,55.80
2016-07-22T05:51:21.692Z,55.80
2016-07-22T05:52:27.419Z,55.70
2016-07-22T05:53:28.438Z,55.70
2016-07-22T05:54:23.361Z,55.70
2016-07-22T05:55:27.431Z,55.80
2016-07-22T05:56:28.158Z,55.20
2016-07-22T05:57:22.710Z,55.80
2016-07-22T05:58:28.391Z,55.80
2016-07-22T05:59:20.997Z,55.70
2016-07-22T06:00:21.823Z,is
2016-07-22T06:01:37.450Z,55.70
2016-07-22T06:02:24.022Z,55.80
2016-07-22T06:03:28.404Z,55.70
2016-07-22T06:04:22.921Z,55.80
2016-07-22T06:05:27.830Z,56.00
2016-07-22T06:06:32.211Z,56.90
2016-07-22T06:07:27.350Z,57.30
2016-07-22T06:08:31.324Z,57.60
2016-07-22T06:09:20.407Z,57.60
2016-07-22T06:10:35.968Z,58.20
2016-07-22T06:11:10.107Z,is
2016-07-22T06:12:27.773Z,58.40
2016-07-22T06:13:22.595Z,58.80
2016-07-22T06:14:27.701Z,59.00
2016-07-22T06:15:27.814Z,59.10
2016-07-22T06:16:22.019Z,59.40
2016-07-22T06:17:13.889Z,59.50
2016-07-22T06:18:29.283Z,59.10
2016-07-22T06:19:27.951Z,59.30
2016-07-22T06:20:21.184Z,58.70
2016-07-22T06:21:27.193Z,59.50
2016-07-22T06:22:29.152Z,59.30
2016-07-22T06:23:27.367Z,59.40
2016-07-22T06:24:29.849Z,59.30
2016-07-22T06:25:27.778Z,59.40
2016-07-22T06:26:33.082Z,59.30
2016-07-22T06:27:28.836Z,59.30
2016-07-22T06:28:22.069Z,59.30
2016-07-22T06:29:23.840Z,59.30
2016-07-22T06:30:27.754Z,59.40
2016-07-22T06:31:30.483Z,59.30
2016-07-22T06:32:21.704Z,is
2016-07-22T06:33:32.323Z,59.20
2016-07-22T06:34:28.074Z,59.40
2016-07-22T06:35:24.861Z,59.40
2016-07-22T06:36:19.381Z,59.40
2016-07-22T06:37:22.416Z,59.40
2016-07-22T06:38:23.406Z,59.40
2016-07-22T06:39:28.575Z,59.40
2016-07-22T06:40:27.217Z,59.40
2016-07-22T06:41:27.678Z,59.40
2016-07-22T06:42:29.122Z,59.40
2016-07-22T06:43:26.570Z,59.40
2016-07-22T06:44:27.628Z,59.60
2016-07-22T06:45:28.242Z,59.40
2016-07-22T06:46:28.488Z,59.50
2016-07-22T06:47:27.750Z,59.80
2016-07-22T06:49:05.066Z,59.40
2016-07-22T06:49:13.540Z,59.40
2016-07-22T06:50:22.109Z,59.50
2016-07-22T06:51:27.339Z,61.40
2016-07-22T06:52:25.381Z,61.10
2016-07-22T06:53:22.519Z,61.50
2016-07-22T06:54:17.034Z,60.90
2016-07-22T06:55:28.269Z,60.30
2016-07-22T06:56:24.703Z,60.10
2016-07-22T06:57:15.540Z,60.00
2016-07-22T06:58:29.069Z,60.10
2016-07-22T06:59:27.878Z,60.10
2016-07-22T07:00:27.191Z,60.20
2016-07-22T07:01:27.781Z,60.20
2016-07-22T07:02:27.461Z,60.20
2016-07-22T07:03:26.537Z,60.20
2016-07-22T07:04:28.178Z,60.00
2016-07-22T07:05:21.984Z,60.00
2016-07-22T07:06:20.417Z,60.10
2016-07-22T07:07:21.901Z,60.10
2016-07-22T07:08:27.873Z,59.90
2016-07-22T07:09:25.903Z,59.80
2016-07-22T07:10:21.973Z,59.80
2016-07-22T07:11:24.598Z,59.80
2016-07-22T07:12:32.673Z,59.60
2016-07-22T07:13:23.727Z,59.50
2016-07-22T07:14:27.240Z,59.40
2016-07-22T07:15:23.520Z,59.50
2016-07-22T07:16:19.998Z,60.10
2016-07-22T07:17:27.442Z,59.70
2016-07-22T07:18:32.455Z,59.80
2016-07-22T07:19:26.913Z,is
2016-07-22T07:20:27.279Z,60.10
2016-07-22T07:21:21.474Z,60.00
2016-07-22T07:22:24.851Z,59.80
2016-07-22T07:23:22.469Z,59.50
2016-07-22T07:24:22.675Z,59.50
2016-07-22T07:25:21.537Z,59.60
2016-07-22T07:26:23.237Z,59.50
2016-07-22T07:27:27.343Z,59.60
2016-07-22T07:28:28.024Z,59.50
2016-07-22T07:29:27.448Z,59.20
2016-07-22T07:30:24.996Z,59.30
2016-07-22T07:31:12.061Z,59.00
2016-07-22T07:32:26.766Z,58.90
2016-07-22T07:33:22.471Z,58.80
2016-07-22T07:34:28.261Z,58.60
2016-07-22T07:35:27.791Z,58.40
2016-07-22T07:36:26.963Z,58.30
2016-07-22T07:37:25.018Z,58.20
2016-07-22T07:38:23.526Z,58.00
2016-07-22T07:39:27.944Z,58.00
2016-07-22T07:40:29.977Z,57.90
2016-07-22T07:41:16.726Z,is
2016-07-22T07:42:25.220Z,57.90
2016-07-22T07:43:13.015Z,is
2016-07-22T07:44:20.116Z,57.60
2016-07-22T07:45:23.277Z,57.60
2016-07-22T07:46:23.590Z,57.50
2016-07-22T07:47:28.836Z,57.30
2016-07-22T07:48:17.542Z,57.40
2016-07-22T07:49:22.005Z,57.30
2016-07-22T07:50:25.695Z,57.20
2016-07-22T07:51:19.745Z,57.20
2016-07-22T07:52:30.259Z,57.20
2016-07-22T07:53:27.015Z,57.00
2016-07-22T07:54:14.007Z,56.90
2016-07-22T07:55:27.209Z,56.90
2016-07-22T07:56:22.717Z,57.00
2016-07-22T07:57:25.405Z,56.90
2016-07-22T07:58:27.016Z,57.10
2016-07-22T07:59:31.335Z,56.80
2016-07-22T08:00:23.267Z,56.80
2016-07-22T08:01:20.350Z,56.70
2016-07-22T08:02:20.702Z,is
2016-07-22T08:03:22.528Z,56.60
2016-07-22T08:04:26.860Z,56.70
2016-07-22T08:05:27.131Z,56.70
2016-07-22T08:06:16.747Z,56.60
2016-07-22T08:07:21.804Z,56.60
2016-07-22T08:08:22.291Z,56.40
2016-07-22T08:09:14.306Z,56.50
2016-07-22T08:10:24.296Z,56.50
2016-07-22T08:11:28.282Z,56.60
2016-07-22T08:12:21.242Z,56.40
2016-07-22T08:13:23.510Z,56.50
2016-07-22T08:14:27.357Z,56.40
2016-07-22T08:15:19.024Z,56.30
2016-07-22T08:16:26.666Z,56.30
2016-07-22T08:17:26.990Z,56.40
2016-07-22T08:18:15.962Z,56.30
2016-07-22T08:19:27.527Z,56.20
2016-07-22T08:20:22.801Z,56.30
2016-07-22T08:21:21.901Z,56.20
2016-07-22T08:22:23.046Z,56.10
2016-07-22T08:23:28.492Z,56.20
2016-07-22T08:24:26.310Z,56.20
2016-07-22T08:25:20.882Z,56.30
2016-07-22T08:26:26.891Z,56.20
2016-07-22T08:27:25.557Z,56.10
2016-07-22T08:28:16.920Z,is
2016-07-22T08:29:23.024Z,55.90
2016-07-22T08:30:10.915Z,is
2016-07-22T08:31:28.091Z,56.00
2016-07-22T08:32:29.319Z,56.00
2016-07-22T08:33:22.163Z,55.80
2016-07-22T08:34:27.351Z,56.10
2016-07-22T08:35:23.529Z,55.10
2016-07-22T08:36:26.704Z,56.00
2016-07-22T08:37:28.576Z,56.00
2016-07-22T08:38:20.951Z,55.90
2016-07-22T08:39:22.373Z,55.80
2016-07-22T08:40:23.147Z,56.00
2016-07-22T08:41:31.346Z,56.20
2016-07-22T08:42:21.935Z,56.00
2016-07-22T08:43:22.576Z,55.90
2016-07-22T08:44:27.986Z,56.00
2016-07-22T08:45:18.356Z,55.80
2016-07-22T08:46:16.870Z,is
2016-07-22T08:47:26.705Z,56.10
2016-07-22T08:48:19.670Z,55.90
2016-07-22T08:49:22.125Z,55.80
2016-07-22T08:50:17.721Z,is
2016-07-22T08:51:24.532Z,55.90
2016-07-22T08:52:28.474Z,56.20
2016-07-22T08:53:19.598Z,56.10
2016-07-22T08:54:26.088Z,56.10
2016-07-22T08:55:22.417Z,56.00
2016-07-22T08:56:28.467Z,55.90
2016-07-22T08:57:21.498Z,55.90
2016-07-22T08:58:26.220Z,55.90
2016-07-22T08:59:26.868Z,55.80
2016-07-22T09:00:28.553Z,55.70
2016-07-22T09:01:26.846Z,55.80
2016-07-22T09:02:28.456Z,55.70
2016-07-22T09:03:19.636Z,55.80
2016-07-22T09:04:29.462Z,55.80
2016-07-22T09:05:17.050Z,55.70
2016-07-22T09:06:29.269Z,55.70
2016-07-22T09:07:20.859Z,55.90
2016-07-22T09:08:25.461Z,55.80
2016-07-22T09:09:22.052Z,55.80
2016-07-22T09:10:26.982Z,55.70
2016-07-22T09:11:27.347Z,55.70
2016-07-22T09:12:12.274Z,55.70
2016-07-22T09:13:23.100Z,55.60
2016-07-22T09:14:14.763Z,55.70
2016-07-22T09:15:21.959Z,55.70
2016-07-22T09:16:25.399Z,55.60
2016-07-22T09:17:23.393Z,55.70
2016-07-22T09:18:28.811Z,55.70
2016-07-22T09:19:18.118Z,55.60
2016-07-22T09:20:27.193Z,55.70
2016-07-22T09:21:26.029Z,55.70
2016-07-22T09:22:26.542Z,55.90
2016-07-22T09:23:20.076Z,55.70
2016-07-22T09:24:21.953Z,55.90
2016-07-22T09:25:28.324Z,55.70
2016-07-22T09:26:25.719Z,55.70
2016-07-22T09:27:26.790Z,55.90
2016-07-22T09:28:32.177Z,55.70
2016-07-22T09:29:34.018Z,55.60
2016-07-22T09:30:22.567Z,55.70
2016-07-22T09:31:25.847Z,55.70
2016-07-22T09:32:18.570Z,55.60
2016-07-22T09:33:26.936Z,55.70
2016-07-22T09:34:22.000Z,55.50
2016-07-22T09:35:19.789Z,55.50
2016-07-22T09:36:22.562Z,55.50
2016-07-22T09:37:16.732Z,55.60
2016-07-22T09:38:26.380Z,55.40
2016-07-22T09:39:16.556Z,55.60
2016-07-22T09:40:22.124Z,55.50
2016-07-22T09:41:18.493Z,55.40
2016-07-22T09:42:23.542Z,55.30
2016-07-22T09:43:26.494Z,55.30
2016-07-22T09:44:21.140Z,55.50
2016-07-22T09:45:23.397Z,55.40
2016-07-22T09:46:23.470Z,55.30
2016-07-22T09:47:27.655Z,55.30
2016-07-22T09:48:27.918Z,55.40
2016-07-22T09:49:27.460Z,55.40
2016-07-22T09:50:27.978Z,55.30
2016-07-22T09:51:15.145Z,55.30
2016-07-22T09:52:20.691Z,55.30
2016-07-22T09:53:25.466Z,55.30
2016-07-22T09:54:23.850Z,55.20
2016-07-22T09:55:18.658Z,55.30
2016-07-22T09:56:20.715Z,55.30
2016-07-22T09:57:23.122Z,55.30
2016-07-22T09:58:27.977Z,55.20
2016-07-22T09:59:22.899Z,55.50
2016-07-22T10:00:14.341Z,55.40
2016-07-22T10:01:22.810Z,55.30
2016-07-22T10:02:28.166Z,55.20
2016-07-22T10:03:20.478Z,55.30
2016-07-22T10:04:31.045Z,55.20
2016-07-22T10:05:21.572Z,55.20
2016-07-22T10:06:32.741Z,55.20
2016-07-22T10:07:20.850Z,55.20
2016-07-22T10:08:14.280Z,55.10
2016-07-22T10:09:17.961Z,55.10
2016-07-22T10:10:22.143Z,55.30
2016-07-22T10:11:27.241Z,55.10
2016-07-22T10:12:16.664Z,55.30
2016-07-22T10:13:28.003Z,55.00
2016-07-22T10:14:27.973Z,55.00
2016-07-22T10:15:13.602Z,54.90
2016-07-22T10:16:20.771Z,54.90
2016-07-22T10:17:26.774Z,55.10
2016-07-22T10:18:32.755Z,55.10
2016-07-22T10:19:22.410Z,55.00
2016-07-22T10:20:26.179Z,55.00
2016-07-22T10:21:22.998Z,55.00
2016-07-22T10:22:16.464Z,55.00
2016-07-22T10:23:27.900Z,55.00
2016-07-22T10:24:19.331Z,is
2016-07-22T10:25:21.696Z,55.00
2016-07-22T10:26:16.005Z,is
2016-07-22T10:27:25.362Z,55.50
2016-07-22T10:28:26.690Z,55.50
2016-07-22T10:29:18.546Z,55.20
2016-07-22T10:30:21.934Z,55.60
2016-07-22T10:31:17.403Z,55.10
2016-07-22T10:32:25.276Z,55.10
2016-07-22T10:33:27.331Z,55.20
2016-07-22T10:34:31.941Z,55.20
2016-07-22T10:35:20.147Z,55.20
2016-07-22T10:36:21.312Z,55.20
2016-07-22T10:37:11.117Z,is
2016-07-22T10:38:27.086Z,55.20
2016-07-22T10:39:10.843Z,is
2016-07-22T10:40:20.382Z,55.10
2016-07-22T10:41:17.546Z,55.10
2016-07-22T10:42:22.453Z,54.90
2016-07-22T10:43:27.142Z,55.00
2016-07-22T10:44:21.917Z,54.90
2016-07-22T10:45:21.242Z,55.00
2016-07-22T10:46:27.178Z,54.90
2016-07-22T10:47:25.899Z,54.90
2016-07-22T10:48:20.942Z,54.50
2016-07-22T10:49:27.760Z,54.90
2016-07-22T10:50:28.140Z,54.80
2016-07-22T10:51:25.997Z,54.80
2016-07-22T10:52:23.219Z,54.70
2016-07-22T10:53:27.722Z,55.00
2016-07-22T10:54:17.668Z,54.90
2016-07-22T10:55:27.760Z,54.80
2016-07-22T10:56:12.956Z,54.90
2016-07-22T10:57:18.523Z,54.80
2016-07-22T10:58:20.368Z,54.80
2016-07-22T10:59:21.260Z,54.00
2016-07-22T11:00:20.431Z,54.70
2016-07-22T11:01:27.218Z,54.70
2016-07-22T11:02:22.770Z,54.70
2016-07-22T11:03:22.808Z,54.70
2016-07-22T11:04:28.192Z,54.70
2016-07-22T11:05:22.584Z,54.70
2016-07-22T11:06:23.074Z,54.70
2016-07-22T11:07:22.474Z,54.70
2016-07-22T11:08:20.241Z,54.80
2016-07-22T11:09:14.747Z,is
2016-07-22T11:10:25.752Z,54.70
2016-07-22T11:11:18.260Z,54.70
2016-07-22T11:12:26.418Z,54.70
2016-07-22T11:13:29.953Z,54.50
2016-07-22T11:14:23.666Z,54.60
2016-07-22T11:15:22.421Z,54.60
2016-07-22T11:16:27.661Z,54.60
2016-07-22T11:17:26.352Z,54.60
2016-07-22T11:18:17.196Z,54.70
2016-07-22T11:19:18.128Z,54.50
2016-07-22T11:20:20.472Z,54.70
2016-07-22T11:21:24.395Z,54.70
2016-07-22T11:22:22.123Z,54.50
2016-07-22T11:23:13.372Z,54.60
2016-07-22T11:24:26.414Z,54.70
2016-07-22T11:25:18.801Z,54.50
2016-07-22T11:26:27.335Z,54.70
2016-07-22T11:27:25.452Z,54.40
2016-07-22T11:28:23.084Z,54.40
2016-07-22T11:29:25.820Z,54.60
2016-07-22T11:30:28.465Z,54.50
2016-07-22T11:31:15.239Z,is
2016-07-22T11:32:21.369Z,54.50
2016-07-22T11:33:21.761Z,54.30
2016-07-22T11:34:21.248Z,54.30
2016-07-22T11:35:24.246Z,54.50
2016-07-22T11:36:20.331Z,54.40
2016-07-22T11:37:21.520Z,54.50
2016-07-22T11:38:22.969Z,54.50
2016-07-22T11:39:17.868Z,54.40
2016-07-22T11:40:27.464Z,54.50
2016-07-22T11:41:26.214Z,54.40
2016-07-22T11:42:25.521Z,53.70
2016-07-22T11:43:25.204Z,54.40
2016-07-22T11:44:21.237Z,54.40
2016-07-22T11:45:25.454Z,54.30
2016-07-22T11:46:21.576Z,54.40
2016-07-22T11:47:27.022Z,54.40
2016-07-22T11:48:28.296Z,54.30
2016-07-22T11:49:28.450Z,54.40
2016-07-22T11:50:19.133Z,54.30
2016-07-22T11:51:19.767Z,54.40
2016-07-22T11:52:34.527Z,54.40
2016-07-22T11:53:22.665Z,54.50
2016-07-22T11:54:26.472Z,54.50
2016-07-22T11:55:17.640Z,54.40
2016-07-22T11:56:18.284Z,is
2016-07-22T11:57:21.712Z,54.40
2016-07-22T11:58:23.582Z,54.40
2016-07-22T11:59:23.728Z,54.40
2016-07-22T12:00:28.561Z,54.40
2016-07-22T12:01:22.604Z,54.40
2016-07-22T12:02:23.055Z,54.40
2016-07-22T12:03:35.431Z,54.40
2016-07-22T12:04:14.396Z,54.40
2016-07-22T12:05:13.306Z,is
2016-07-22T12:06:16.631Z,54.50
2016-07-22T12:07:17.370Z,54.40
2016-07-22T12:08:17.963Z,54.50
2016-07-22T12:09:15.287Z,54.40
2016-07-22T12:10:15.644Z,54.50
2016-07-22T12:11:15.063Z,54.40
2016-07-22T12:12:16.074Z,54.50
2016-07-22T12:13:15.722Z,54.40
2016-07-22T12:14:16.584Z,54.40
2016-07-22T12:15:12.639Z,is
2016-07-22T12:16:16.133Z,54.50
2016-07-22T12:17:18.543Z,54.40
2016-07-22T12:18:16.630Z,54.50
2016-07-22T12:19:16.962Z,54.40
2016-07-22T12:20:15.974Z,54.50
2016-07-22T12:21:18.290Z,54.40
2016-07-22T12:22:14.416Z,54.40
2016-07-22T12:23:14.194Z,54.40
2016-07-22T12:24:14.934Z,54.40
2016-07-22T12:25:15.462Z,54.40
2016-07-22T12:26:15.525Z,54.50
2016-07-22T12:27:15.018Z,54.40
2016-07-22T12:28:13.331Z,54.40
2016-07-22T12:29:14.440Z,54.40
2016-07-22T12:30:21.013Z,54.40
2016-07-22T12:31:16.931Z,54.40
2016-07-22T12:32:15.766Z,54.50
2016-07-22T12:33:15.337Z,54.40
2016-07-22T12:34:17.863Z,54.30
2016-07-22T12:35:15.670Z,54.20
2016-07-22T12:36:13.534Z,54.40
2016-07-22T12:37:21.940Z,54.50
2016-07-22T12:38:15.468Z,54.40
2016-07-22T12:39:21.676Z,54.50
2016-07-22T12:40:30.625Z,54.50
2016-07-22T12:41:23.223Z,54.40
2016-07-22T12:42:14.782Z,54.40
2016-07-22T12:43:23.312Z,54.50
2016-07-22T12:44:15.168Z,54.70
2016-07-22T12:45:16.229Z,54.50
2016-07-22T12:46:15.189Z,54.50
2016-07-22T12:47:15.138Z,54.50
2016-07-22T12:48:15.335Z,54.60
2016-07-22T12:49:15.594Z,54.60
2016-07-22T12:50:15.117Z,54.50
2016-07-22T12:51:17.614Z,54.60
2016-07-22T12:52:14.710Z,54.50
2016-07-22T12:53:15.919Z,54.50
2016-07-22T12:54:14.491Z,54.50
2016-07-22T12:55:16.985Z,54.60
2016-07-22T12:56:15.081Z,54.50
2016-07-22T12:57:16.985Z,54.50
2016-07-22T12:58:18.763Z,54.50